sensor_id;sensor_type;location;lat;lon;timestamp;P1;durP1;ratioP1;P2;durP2;ratioP2
41817;SDS011;27493;51.730;5.294;2023-04-08T00:01:44;47.30;;;22.90;;
41817;SDS011;27493;51.730;5.294;2023-04-08T00:04:09;46.00;;;22.93;;
41817;SDS011;27493;51.730;5.294;2023-04-08T00:06:36;44.17;;;22.50;;
41817;SDS011;27493;51.730;5.294;2023-04-08T00:09:01;45.67;;;22.93;;
41817;SDS011;27493;51.730;5.294;2023-04-08T00:11:27;50.43;;;23.13;;
41817;SDS011;27493;51.730;5.294;2023-04-08T00:13:52;48.47;;;22.83;;
41817;SDS011;27493;51.730;5.294;2023-04-08T00:16:17;43.67;;;22.53;;
41817;SDS011;27493;51.730;5.294;2023-04-08T00:18:42;51.00;;;23.03;;
41817;SDS011;27493;51.730;5.294;2023-04-08T00:21:08;45.90;;;22.33;;
41817;SDS011;27493;51.730;5.294;2023-04-08T00:23:33;48.63;;;23.47;;
41817;SDS011;27493;51.730;5.294;2023-04-08T00:25:58;47.47;;;23.53;;
41817;SDS011;27493;51.730;5.294;2023-04-08T00:28:23;51.23;;;23.30;;
41817;SDS011;27493;51.730;5.294;2023-04-08T00:30:49;50.47;;;23.07;;
41817;SDS011;27493;51.730;5.294;2023-04-08T00:33:15;49.83;;;22.80;;
41817;SDS011;27493;51.730;5.294;2023-04-08T00:35:40;48.87;;;23.77;;
41817;SDS011;27493;51.730;5.294;2023-04-08T00:38:05;50.07;;;23.27;;
41817;SDS011;27493;51.730;5.294;2023-04-08T00:40:32;47.40;;;24.73;;
41817;SDS011;27493;51.730;5.294;2023-04-08T00:42:57;49.10;;;23.57;;
41817;SDS011;27493;51.730;5.294;2023-04-08T00:45:22;52.70;;;25.67;;
41817;SDS011;27493;51.730;5.294;2023-04-08T00:47:47;53.60;;;25.27;;
41817;SDS011;27493;51.730;5.294;2023-04-08T00:50:16;48.63;;;24.10;;
41817;SDS011;27493;51.730;5.294;2023-04-08T00:52:41;52.33;;;25.17;;
41817;SDS011;27493;51.730;5.294;2023-04-08T00:55:07;49.50;;;24.43;;
41817;SDS011;27493;51.730;5.294;2023-04-08T00:57:32;51.37;;;24.87;;
41817;SDS011;27493;51.730;5.294;2023-04-08T00:59:57;50.03;;;24.23;;
41817;SDS011;27493;51.730;5.294;2023-04-08T01:02:38;48.60;;;23.90;;
41817;SDS011;27493;51.730;5.294;2023-04-08T01:05:55;44.77;;;22.93;;
41817;SDS011;27493;51.730;5.294;2023-04-08T01:07:52;45.23;;;23.63;;
41817;SDS011;27493;51.730;5.294;2023-04-08T01:12:43;52.42;;;24.20;;
41817;SDS011;27493;51.730;5.294;2023-04-08T01:15:11;41.60;;;24.10;;
41817;SDS011;27493;51.730;5.294;2023-04-08T01:17:36;47.90;;;24.63;;
41817;SDS011;27493;51.730;5.294;2023-04-08T01:20:02;48.00;;;23.57;;
41817;SDS011;27493;51.730;5.294;2023-04-08T01:25:16;46.83;;;22.87;;
41817;SDS011;27493;51.730;5.294;2023-04-08T01:27:42;55.20;;;25.43;;
41817;SDS011;27493;51.730;5.294;2023-04-08T01:30:08;48.40;;;23.90;;
41817;SDS011;27493;51.730;5.294;2023-04-08T01:32:34;55.43;;;23.57;;
41817;SDS011;27493;51.730;5.294;2023-04-08T01:35:00;48.93;;;24.43;;
41817;SDS011;27493;51.730;5.294;2023-04-08T01:37:26;54.20;;;24.60;;
41817;SDS011;27493;51.730;5.294;2023-04-08T01:39:52;58.50;;;24.83;;
41817;SDS011;27493;51.730;5.294;2023-04-08T01:42:18;55.90;;;24.90;;
41817;SDS011;27493;51.730;5.294;2023-04-08T01:44:43;53.83;;;25.33;;
41817;SDS011;27493;51.730;5.294;2023-04-08T01:47:09;44.20;;;23.43;;
41817;SDS011;27493;51.730;5.294;2023-04-08T01:49:37;50.50;;;24.13;;
41817;SDS011;27493;51.730;5.294;2023-04-08T01:52:02;48.63;;;23.33;;
41817;SDS011;27493;51.730;5.294;2023-04-08T01:54:29;53.47;;;24.23;;
41817;SDS011;27493;51.730;5.294;2023-04-08T01:56:54;53.40;;;23.80;;
41817;SDS011;27493;51.730;5.294;2023-04-08T01:59:21;53.03;;;24.43;;
41817;SDS011;27493;51.730;5.294;2023-04-08T02:01:48;53.40;;;23.33;;
41817;SDS011;27493;51.730;5.294;2023-04-08T02:04:14;59.87;;;25.23;;
41817;SDS011;27493;51.730;5.294;2023-04-08T02:06:40;54.77;;;24.93;;
41817;SDS011;27493;51.730;5.294;2023-04-08T02:09:05;58.77;;;25.70;;
41817;SDS011;27493;51.730;5.294;2023-04-08T02:11:31;53.40;;;24.43;;
41817;SDS011;27493;51.730;5.294;2023-04-08T02:13:56;59.53;;;25.73;;
41817;SDS011;27493;51.730;5.294;2023-04-08T02:16:30;61.83;;;25.80;;
41817;SDS011;27493;51.730;5.294;2023-04-08T02:22:01;66.13;;;26.93;;
41817;SDS011;27493;51.730;5.294;2023-04-08T02:24:29;61.60;;;26.87;;
41817;SDS011;27493;51.730;5.294;2023-04-08T02:26:55;58.03;;;26.23;;
41817;SDS011;27493;51.730;5.294;2023-04-08T02:29:21;62.47;;;26.53;;
41817;SDS011;27493;51.730;5.294;2023-04-08T02:31:47;58.27;;;26.27;;
41817;SDS011;27493;51.730;5.294;2023-04-08T02:34:13;61.80;;;26.27;;
41817;SDS011;27493;51.730;5.294;2023-04-08T02:36:40;59.77;;;26.77;;
41817;SDS011;27493;51.730;5.294;2023-04-08T02:39:06;60.70;;;26.03;;
41817;SDS011;27493;51.730;5.294;2023-04-08T02:41:32;58.03;;;24.90;;
41817;SDS011;27493;51.730;5.294;2023-04-08T02:43:57;61.43;;;27.07;;
41817;SDS011;27493;51.730;5.294;2023-04-08T02:46:22;65.63;;;26.53;;
41817;SDS011;27493;51.730;5.294;2023-04-08T02:48:47;57.47;;;26.10;;
41817;SDS011;27493;51.730;5.294;2023-04-08T02:51:13;58.20;;;26.00;;
41817;SDS011;27493;51.730;5.294;2023-04-08T02:53:38;61.97;;;27.03;;
41817;SDS011;27493;51.730;5.294;2023-04-08T02:56:03;64.87;;;26.73;;
41817;SDS011;27493;51.730;5.294;2023-04-08T02:58:28;58.87;;;25.23;;
41817;SDS011;27493;51.730;5.294;2023-04-08T03:00:54;55.90;;;25.37;;
41817;SDS011;27493;51.730;5.294;2023-04-08T03:03:20;62.07;;;26.20;;
41817;SDS011;27493;51.730;5.294;2023-04-08T03:05:51;60.10;;;26.37;;
41817;SDS011;27493;51.730;5.294;2023-04-08T03:08:16;58.67;;;27.60;;
41817;SDS011;27493;51.730;5.294;2023-04-08T03:10:41;55.57;;;25.53;;
41817;SDS011;27493;51.730;5.294;2023-04-08T03:13:07;59.33;;;26.70;;
41817;SDS011;27493;51.730;5.294;2023-04-08T03:15:32;56.13;;;25.07;;
41817;SDS011;27493;51.730;5.294;2023-04-08T03:17:57;57.27;;;25.60;;
41817;SDS011;27493;51.730;5.294;2023-04-08T03:20:22;58.50;;;26.17;;
41817;SDS011;27493;51.730;5.294;2023-04-08T03:22:47;56.73;;;26.13;;
41817;SDS011;27493;51.730;5.294;2023-04-08T03:25:12;55.63;;;24.13;;
41817;SDS011;27493;51.730;5.294;2023-04-08T03:27:38;57.23;;;25.20;;
41817;SDS011;27493;51.730;5.294;2023-04-08T03:30:03;58.07;;;25.67;;
41817;SDS011;27493;51.730;5.294;2023-04-08T03:32:28;54.83;;;25.27;;
41817;SDS011;27493;51.730;5.294;2023-04-08T03:34:53;52.37;;;24.00;;
41817;SDS011;27493;51.730;5.294;2023-04-08T03:37:18;53.73;;;25.23;;
41817;SDS011;27493;51.730;5.294;2023-04-08T03:39:44;60.57;;;24.70;;
41817;SDS011;27493;51.730;5.294;2023-04-08T03:42:10;53.17;;;23.97;;
41817;SDS011;27493;51.730;5.294;2023-04-08T03:44:35;57.23;;;24.17;;
41817;SDS011;27493;51.730;5.294;2023-04-08T03:47:00;53.70;;;24.00;;
41817;SDS011;27493;51.730;5.294;2023-04-08T03:49:25;52.20;;;24.07;;
41817;SDS011;27493;51.730;5.294;2023-04-08T03:51:50;46.57;;;24.43;;
41817;SDS011;27493;51.730;5.294;2023-04-08T03:54:16;50.23;;;24.43;;
41817;SDS011;27493;51.730;5.294;2023-04-08T03:56:41;52.50;;;24.40;;
41817;SDS011;27493;51.730;5.294;2023-04-08T03:59:06;50.80;;;22.37;;
41817;SDS011;27493;51.730;5.294;2023-04-08T04:01:31;47.53;;;24.33;;
41817;SDS011;27493;51.730;5.294;2023-04-08T04:03:57;49.97;;;23.23;;
41817;SDS011;27493;51.730;5.294;2023-04-08T04:06:22;47.23;;;23.70;;
41817;SDS011;27493;51.730;5.294;2023-04-08T04:08:47;54.33;;;24.57;;
41817;SDS011;27493;51.730;5.294;2023-04-08T04:11:14;52.27;;;24.10;;
41817;SDS011;27493;51.730;5.294;2023-04-08T04:13:39;55.70;;;25.63;;
41817;SDS011;27493;51.730;5.294;2023-04-08T04:16:04;60.40;;;25.47;;
41817;SDS011;27493;51.730;5.294;2023-04-08T04:18:29;54.80;;;24.40;;
41817;SDS011;27493;51.730;5.294;2023-04-08T04:20:54;53.23;;;24.57;;
41817;SDS011;27493;51.730;5.294;2023-04-08T04:23:20;49.47;;;22.57;;
41817;SDS011;27493;51.730;5.294;2023-04-08T04:25:45;53.33;;;24.40;;
41817;SDS011;27493;51.730;5.294;2023-04-08T04:28:10;52.83;;;23.47;;
41817;SDS011;27493;51.730;5.294;2023-04-08T04:30:36;57.60;;;24.83;;
41817;SDS011;27493;51.730;5.294;2023-04-08T04:33:02;52.63;;;24.33;;
41817;SDS011;27493;51.730;5.294;2023-04-08T04:35:27;52.03;;;24.63;;
41817;SDS011;27493;51.730;5.294;2023-04-08T04:37:52;52.30;;;24.43;;
41817;SDS011;27493;51.730;5.294;2023-04-08T04:40:17;53.13;;;24.27;;
41817;SDS011;27493;51.730;5.294;2023-04-08T04:42:43;49.77;;;24.43;;
41817;SDS011;27493;51.730;5.294;2023-04-08T04:45:08;58.33;;;25.87;;
41817;SDS011;27493;51.730;5.294;2023-04-08T04:47:34;52.97;;;24.90;;
41817;SDS011;27493;51.730;5.294;2023-04-08T04:49:59;57.57;;;24.20;;
41817;SDS011;27493;51.730;5.294;2023-04-08T04:52:24;53.23;;;24.93;;
41817;SDS011;27493;51.730;5.294;2023-04-08T04:54:49;57.47;;;25.40;;
41817;SDS011;27493;51.730;5.294;2023-04-08T04:57:14;58.10;;;25.63;;
41817;SDS011;27493;51.730;5.294;2023-04-08T04:59:40;53.27;;;25.03;;
41817;SDS011;27493;51.730;5.294;2023-04-08T05:02:05;59.07;;;26.53;;
41817;SDS011;27493;51.730;5.294;2023-04-08T05:04:30;64.53;;;25.40;;
41817;SDS011;27493;51.730;5.294;2023-04-08T05:06:57;63.10;;;27.50;;
41817;SDS011;27493;51.730;5.294;2023-04-08T05:09:22;59.73;;;25.97;;
41817;SDS011;27493;51.730;5.294;2023-04-08T05:11:48;60.03;;;27.30;;
41817;SDS011;27493;51.730;5.294;2023-04-08T05:14:13;60.87;;;26.80;;
41817;SDS011;27493;51.730;5.294;2023-04-08T05:16:38;57.57;;;25.73;;
41817;SDS011;27493;51.730;5.294;2023-04-08T05:19:03;70.73;;;26.97;;
41817;SDS011;27493;51.730;5.294;2023-04-08T05:21:28;86.70;;;27.17;;
41817;SDS011;27493;51.730;5.294;2023-04-08T05:23:54;130.80;;;28.00;;
41817;SDS011;27493;51.730;5.294;2023-04-08T05:26:19;101.13;;;26.63;;
41817;SDS011;27493;51.730;5.294;2023-04-08T05:28:45;72.40;;;27.93;;
41817;SDS011;27493;51.730;5.294;2023-04-08T05:31:11;98.57;;;25.80;;
41817;SDS011;27493;51.730;5.294;2023-04-08T05:39:41;79.37;;;21.50;;
41817;SDS011;27493;51.730;5.294;2023-04-08T05:42:07;125.03;;;23.33;;
41817;SDS011;27493;51.730;5.294;2023-04-08T05:44:32;84.50;;;22.33;;
41817;SDS011;27493;51.730;5.294;2023-04-08T05:46:57;87.70;;;20.70;;
41817;SDS011;27493;51.730;5.294;2023-04-08T05:49:24;95.10;;;21.23;;
41817;SDS011;27493;51.730;5.294;2023-04-08T05:51:49;187.67;;;26.47;;
41817;SDS011;27493;51.730;5.294;2023-04-08T05:54:14;91.07;;;22.00;;
41817;SDS011;27493;51.730;5.294;2023-04-08T05:56:39;150.00;;;25.07;;
41817;SDS011;27493;51.730;5.294;2023-04-08T05:59:04;139.03;;;23.73;;
41817;SDS011;27493;51.730;5.294;2023-04-08T06:01:30;166.30;;;23.83;;
41817;SDS011;27493;51.730;5.294;2023-04-08T06:03:55;82.70;;;20.63;;
41817;SDS011;27493;51.730;5.294;2023-04-08T06:06:21;81.47;;;19.53;;
41817;SDS011;27493;51.730;5.294;2023-04-08T06:08:46;117.40;;;21.20;;
41817;SDS011;27493;51.730;5.294;2023-04-08T06:11:11;77.97;;;21.63;;
41817;SDS011;27493;51.730;5.294;2023-04-08T06:13:36;73.73;;;21.60;;
41817;SDS011;27493;51.730;5.294;2023-04-08T06:18:36;73.80;;;20.23;;
41817;SDS011;27493;51.730;5.294;2023-04-08T06:21:02;107.10;;;22.27;;
41817;SDS011;27493;51.730;5.294;2023-04-08T06:23:27;99.47;;;21.97;;
41817;SDS011;27493;51.730;5.294;2023-04-08T06:25:52;71.93;;;21.30;;
41817;SDS011;27493;51.730;5.294;2023-04-08T06:28:17;95.27;;;20.67;;
41817;SDS011;27493;51.730;5.294;2023-04-08T06:30:42;101.63;;;21.30;;
41817;SDS011;27493;51.730;5.294;2023-04-08T06:33:08;70.23;;;20.40;;
41817;SDS011;27493;51.730;5.294;2023-04-08T06:35:33;74.17;;;20.00;;
41817;SDS011;27493;51.730;5.294;2023-04-08T06:44:04;80.27;;;20.07;;
41817;SDS011;27493;51.730;5.294;2023-04-08T06:46:29;170.20;;;24.67;;
41817;SDS011;27493;51.730;5.294;2023-04-08T06:48:54;65.97;;;21.00;;
41817;SDS011;27493;51.730;5.294;2023-04-08T06:51:20;128.30;;;22.30;;
41817;SDS011;27493;51.730;5.294;2023-04-08T06:53:45;85.93;;;19.60;;
41817;SDS011;27493;51.730;5.294;2023-04-08T06:56:10;124.20;;;20.50;;
41817;SDS011;27493;51.730;5.294;2023-04-08T06:58:35;93.68;;;21.58;;
41817;SDS011;27493;51.730;5.294;2023-04-08T07:01:00;71.93;;;17.53;;
41817;SDS011;27493;51.730;5.294;2023-04-08T07:03:27;52.00;;;18.53;;
41817;SDS011;27493;51.730;5.294;2023-04-08T07:05:52;81.53;;;19.13;;
41817;SDS011;27493;51.730;5.294;2023-04-08T07:08:17;42.80;;;17.73;;
41817;SDS011;27493;51.730;5.294;2023-04-08T07:10:42;39.60;;;17.90;;
41817;SDS011;27493;51.730;5.294;2023-04-08T07:13:08;78.33;;;18.70;;
41817;SDS011;27493;51.730;5.294;2023-04-08T07:15:34;66.10;;;19.70;;
41817;SDS011;27493;51.730;5.294;2023-04-08T07:17:59;37.40;;;18.67;;
41817;SDS011;27493;51.730;5.294;2023-04-08T07:20:25;41.63;;;18.37;;
41817;SDS011;27493;51.730;5.294;2023-04-08T07:22:50;38.57;;;17.73;;
41817;SDS011;27493;51.730;5.294;2023-04-08T07:25:16;46.70;;;18.33;;
41817;SDS011;27493;51.730;5.294;2023-04-08T07:27:41;48.37;;;17.47;;
41817;SDS011;27493;51.730;5.294;2023-04-08T07:30:06;47.87;;;18.47;;
41817;SDS011;27493;51.730;5.294;2023-04-08T07:32:32;52.00;;;17.87;;
41817;SDS011;27493;51.730;5.294;2023-04-08T07:34:58;49.23;;;18.37;;
41817;SDS011;27493;51.730;5.294;2023-04-08T07:37:23;44.97;;;17.47;;
41817;SDS011;27493;51.730;5.294;2023-04-08T07:39:48;34.27;;;18.10;;
41817;SDS011;27493;51.730;5.294;2023-04-08T07:42:14;39.30;;;19.20;;
41817;SDS011;27493;51.730;5.294;2023-04-08T07:44:39;84.77;;;20.60;;
41817;SDS011;27493;51.730;5.294;2023-04-08T07:47:04;41.20;;;18.73;;
41817;SDS011;27493;51.730;5.294;2023-04-08T07:49:29;38.23;;;18.53;;
41817;SDS011;27493;51.730;5.294;2023-04-08T07:51:55;38.07;;;18.13;;
41817;SDS011;27493;51.730;5.294;2023-04-08T07:54:21;60.80;;;18.47;;
41817;SDS011;27493;51.730;5.294;2023-04-08T07:56:47;43.13;;;17.57;;
41817;SDS011;27493;51.730;5.294;2023-04-08T07:59:12;51.07;;;18.17;;
41817;SDS011;27493;51.730;5.294;2023-04-08T08:01:37;61.90;;;18.50;;
41817;SDS011;27493;51.730;5.294;2023-04-08T08:04:02;59.53;;;16.70;;
41817;SDS011;27493;51.730;5.294;2023-04-08T08:06:28;63.87;;;17.53;;
41817;SDS011;27493;51.730;5.294;2023-04-08T08:08:53;31.40;;;16.57;;
41817;SDS011;27493;51.730;5.294;2023-04-08T08:11:18;37.77;;;16.70;;
41817;SDS011;27493;51.730;5.294;2023-04-08T08:13:43;28.13;;;16.80;;
41817;SDS011;27493;51.730;5.294;2023-04-08T08:16:09;25.33;;;16.37;;
41817;SDS011;27493;51.730;5.294;2023-04-08T08:18:35;27.77;;;16.00;;
41817;SDS011;27493;51.730;5.294;2023-04-08T08:21:01;28.63;;;16.27;;
41817;SDS011;27493;51.730;5.294;2023-04-08T08:23:26;26.37;;;15.67;;
41817;SDS011;27493;51.730;5.294;2023-04-08T08:25:58;39.47;;;15.30;;
41817;SDS011;27493;51.730;5.294;2023-04-08T08:28:23;34.77;;;16.00;;
41817;SDS011;27493;51.730;5.294;2023-04-08T08:30:48;30.53;;;17.10;;
41817;SDS011;27493;51.730;5.294;2023-04-08T08:33:13;25.20;;;16.27;;
41817;SDS011;27493;51.730;5.294;2023-04-08T08:35:38;34.60;;;16.93;;
41817;SDS011;27493;51.730;5.294;2023-04-08T08:38:03;26.77;;;16.70;;
41817;SDS011;27493;51.730;5.294;2023-04-08T08:40:29;27.37;;;16.03;;
41817;SDS011;27493;51.730;5.294;2023-04-08T08:42:54;45.03;;;15.70;;
41817;SDS011;27493;51.730;5.294;2023-04-08T08:45:21;24.30;;;15.47;;
41817;SDS011;27493;51.730;5.294;2023-04-08T08:47:46;33.03;;;16.47;;
41817;SDS011;27493;51.730;5.294;2023-04-08T08:50:11;24.43;;;14.90;;
41817;SDS011;27493;51.730;5.294;2023-04-08T08:52:36;26.53;;;15.57;;
41817;SDS011;27493;51.730;5.294;2023-04-08T08:55:02;24.90;;;16.53;;
41817;SDS011;27493;51.730;5.294;2023-04-08T08:57:27;28.77;;;17.77;;
41817;SDS011;27493;51.730;5.294;2023-04-08T08:59:52;33.07;;;18.27;;
41817;SDS011;27493;51.730;5.294;2023-04-08T09:02:28;32.83;;;19.93;;
41817;SDS011;27493;51.730;5.294;2023-04-08T09:04:57;31.40;;;19.90;;
41817;SDS011;27493;51.730;5.294;2023-04-08T09:07:23;35.33;;;20.77;;
41817;SDS011;27493;51.730;5.294;2023-04-08T09:09:50;31.33;;;19.10;;
41817;SDS011;27493;51.730;5.294;2023-04-08T09:12:15;29.93;;;19.50;;
41817;SDS011;27493;51.730;5.294;2023-04-08T09:14:40;30.23;;;19.83;;
41817;SDS011;27493;51.730;5.294;2023-04-08T09:17:06;30.10;;;20.17;;
41817;SDS011;27493;51.730;5.294;2023-04-08T09:19:31;33.20;;;20.37;;
41817;SDS011;27493;51.730;5.294;2023-04-08T09:22:03;32.77;;;21.00;;
41817;SDS011;27493;51.730;5.294;2023-04-08T09:24:29;29.90;;;21.03;;
41817;SDS011;27493;51.730;5.294;2023-04-08T09:26:54;34.40;;;22.00;;
41817;SDS011;27493;51.730;5.294;2023-04-08T09:29:20;32.30;;;21.20;;
41817;SDS011;27493;51.730;5.294;2023-04-08T09:31:47;31.33;;;21.33;;
41817;SDS011;27493;51.730;5.294;2023-04-08T09:34:17;32.73;;;21.87;;
41817;SDS011;27493;51.730;5.294;2023-04-08T09:36:44;34.57;;;22.27;;
41817;SDS011;27493;51.730;5.294;2023-04-08T09:39:10;36.00;;;23.13;;
41817;SDS011;27493;51.730;5.294;2023-04-08T09:41:36;34.47;;;22.47;;
41817;SDS011;27493;51.730;5.294;2023-04-08T09:44:02;35.27;;;22.73;;
41817;SDS011;27493;51.730;5.294;2023-04-08T09:46:31;36.23;;;23.23;;
41817;SDS011;27493;51.730;5.294;2023-04-08T09:49:04;35.13;;;23.43;;
41817;SDS011;27493;51.730;5.294;2023-04-08T09:51:31;36.13;;;24.13;;
41817;SDS011;27493;51.730;5.294;2023-04-08T09:54:02;34.53;;;22.77;;
41817;SDS011;27493;51.730;5.294;2023-04-08T09:56:29;33.93;;;22.63;;
41817;SDS011;27493;51.730;5.294;2023-04-08T09:59:01;30.70;;;21.57;;
41817;SDS011;27493;51.730;5.294;2023-04-08T10:01:31;33.70;;;22.57;;
41817;SDS011;27493;51.730;5.294;2023-04-08T10:03:58;32.37;;;22.80;;
41817;SDS011;27493;51.730;5.294;2023-04-08T10:06:26;31.50;;;22.33;;
41817;SDS011;27493;51.730;5.294;2023-04-08T10:08:52;29.07;;;21.50;;
41817;SDS011;27493;51.730;5.294;2023-04-08T10:11:18;32.33;;;23.07;;
41817;SDS011;27493;51.730;5.294;2023-04-08T10:13:43;29.03;;;21.20;;
41817;SDS011;27493;51.730;5.294;2023-04-08T10:18:40;29.97;;;22.17;;
41817;SDS011;27493;51.730;5.294;2023-04-08T10:21:29;29.10;;;22.77;;
41817;SDS011;27493;51.730;5.294;2023-04-08T10:23:53;29.50;;;22.03;;
41817;SDS011;27493;51.730;5.294;2023-04-08T10:26:29;30.93;;;22.53;;
41817;SDS011;27493;51.730;5.294;2023-04-08T10:28:59;31.20;;;22.83;;
41817;SDS011;27493;51.730;5.294;2023-04-08T10:31:41;27.87;;;21.70;;
41817;SDS011;27493;51.730;5.294;2023-04-08T10:36:41;26.43;;;20.60;;
41817;SDS011;27493;51.730;5.294;2023-04-08T10:39:06;28.67;;;21.70;;
41817;SDS011;27493;51.730;5.294;2023-04-08T10:41:32;31.27;;;21.43;;
41817;SDS011;27493;51.730;5.294;2023-04-08T10:43:57;30.27;;;22.27;;
41817;SDS011;27493;51.730;5.294;2023-04-08T10:46:22;28.23;;;21.70;;
41817;SDS011;27493;51.730;5.294;2023-04-08T10:48:58;29.17;;;22.20;;
41817;SDS011;27493;51.730;5.294;2023-04-08T10:51:23;30.53;;;22.47;;
41817;SDS011;27493;51.730;5.294;2023-04-08T10:53:48;26.47;;;21.90;;
41817;SDS011;27493;51.730;5.294;2023-04-08T10:56:14;27.43;;;20.93;;
41817;SDS011;27493;51.730;5.294;2023-04-08T10:58:52;26.33;;;20.77;;
41817;SDS011;27493;51.730;5.294;2023-04-08T11:01:18;29.97;;;22.40;;
41817;SDS011;27493;51.730;5.294;2023-04-08T11:03:43;27.23;;;21.27;;
41817;SDS011;27493;51.730;5.294;2023-04-08T11:06:08;26.43;;;21.63;;
41817;SDS011;27493;51.730;5.294;2023-04-08T11:08:34;27.73;;;21.13;;
41817;SDS011;27493;51.730;5.294;2023-04-08T11:11:01;29.43;;;22.20;;
41817;SDS011;27493;51.730;5.294;2023-04-08T11:13:26;30.03;;;22.40;;
41817;SDS011;27493;51.730;5.294;2023-04-08T11:15:52;27.50;;;21.17;;
41817;SDS011;27493;51.730;5.294;2023-04-08T11:18:18;26.70;;;19.93;;
41817;SDS011;27493;51.730;5.294;2023-04-08T11:20:45;24.73;;;19.90;;
41817;SDS011;27493;51.730;5.294;2023-04-08T11:23:12;26.43;;;20.97;;
41817;SDS011;27493;51.730;5.294;2023-04-08T11:25:38;26.00;;;20.57;;
41817;SDS011;27493;51.730;5.294;2023-04-08T11:28:03;27.27;;;20.87;;
41817;SDS011;27493;51.730;5.294;2023-04-08T11:30:29;24.83;;;21.17;;
41817;SDS011;27493;51.730;5.294;2023-04-08T11:32:55;24.33;;;20.63;;
41817;SDS011;27493;51.730;5.294;2023-04-08T11:35:21;26.90;;;20.63;;
41817;SDS011;27493;51.730;5.294;2023-04-08T11:37:46;24.47;;;19.83;;
41817;SDS011;27493;51.730;5.294;2023-04-08T11:40:11;24.00;;;19.47;;
41817;SDS011;27493;51.730;5.294;2023-04-08T11:42:37;28.37;;;22.23;;
41817;SDS011;27493;51.730;5.294;2023-04-08T11:45:10;24.83;;;20.57;;
41817;SDS011;27493;51.730;5.294;2023-04-08T11:47:36;26.47;;;21.30;;
41817;SDS011;27493;51.730;5.294;2023-04-08T11:50:01;26.23;;;20.27;;
41817;SDS011;27493;51.730;5.294;2023-04-08T11:52:46;25.23;;;20.63;;
41817;SDS011;27493;51.730;5.294;2023-04-08T11:55:12;24.00;;;21.00;;
41817;SDS011;27493;51.730;5.294;2023-04-08T11:57:45;24.80;;;20.00;;
41817;SDS011;27493;51.730;5.294;2023-04-08T12:00:10;26.00;;;20.23;;
41817;SDS011;27493;51.730;5.294;2023-04-08T12:02:36;23.60;;;18.93;;
41817;SDS011;27493;51.730;5.294;2023-04-08T12:05:01;24.47;;;18.80;;
41817;SDS011;27493;51.730;5.294;2023-04-08T12:07:27;22.60;;;18.47;;
41817;SDS011;27493;51.730;5.294;2023-04-08T12:09:52;23.77;;;18.70;;
41817;SDS011;27493;51.730;5.294;2023-04-08T12:12:17;23.10;;;18.27;;
41817;SDS011;27493;51.730;5.294;2023-04-08T12:14:43;22.20;;;18.63;;
41817;SDS011;27493;51.730;5.294;2023-04-08T12:17:08;24.93;;;19.10;;
41817;SDS011;27493;51.730;5.294;2023-04-08T12:19:33;20.80;;;17.90;;
41817;SDS011;27493;51.730;5.294;2023-04-08T12:21:58;22.00;;;18.27;;
41817;SDS011;27493;51.730;5.294;2023-04-08T12:24:23;23.87;;;18.43;;
41817;SDS011;27493;51.730;5.294;2023-04-08T12:26:49;20.13;;;16.90;;
41817;SDS011;27493;51.730;5.294;2023-04-08T12:29:14;22.30;;;18.33;;
41817;SDS011;27493;51.730;5.294;2023-04-08T12:31:39;21.33;;;17.57;;
41817;SDS011;27493;51.730;5.294;2023-04-08T12:34:04;20.70;;;17.30;;
41817;SDS011;27493;51.730;5.294;2023-04-08T12:36:30;22.23;;;18.80;;
41817;SDS011;27493;51.730;5.294;2023-04-08T12:38:56;21.20;;;18.30;;
41817;SDS011;27493;51.730;5.294;2023-04-08T12:41:21;19.87;;;17.40;;
41817;SDS011;27493;51.730;5.294;2023-04-08T12:43:47;20.10;;;17.03;;
41817;SDS011;27493;51.730;5.294;2023-04-08T12:46:12;21.00;;;17.90;;
41817;SDS011;27493;51.730;5.294;2023-04-08T12:48:37;20.77;;;17.73;;
41817;SDS011;27493;51.730;5.294;2023-04-08T12:51:02;19.10;;;16.57;;
41817;SDS011;27493;51.730;5.294;2023-04-08T12:53:27;19.37;;;16.57;;
41817;SDS011;27493;51.730;5.294;2023-04-08T12:55:53;18.57;;;15.57;;
41817;SDS011;27493;51.730;5.294;2023-04-08T12:58:21;20.10;;;16.33;;
41817;SDS011;27493;51.730;5.294;2023-04-08T13:00:46;18.57;;;15.87;;
41817;SDS011;27493;51.730;5.294;2023-04-08T13:03:11;17.80;;;14.97;;
41817;SDS011;27493;51.730;5.294;2023-04-08T13:05:37;17.73;;;14.97;;
41817;SDS011;27493;51.730;5.294;2023-04-08T13:08:02;19.13;;;14.70;;
41817;SDS011;27493;51.730;5.294;2023-04-08T13:10:28;15.63;;;14.03;;
41817;SDS011;27493;51.730;5.294;2023-04-08T13:12:53;15.60;;;13.33;;
41817;SDS011;27493;51.730;5.294;2023-04-08T13:15:18;15.70;;;13.63;;
41817;SDS011;27493;51.730;5.294;2023-04-08T13:17:43;16.90;;;13.30;;
41817;SDS011;27493;51.730;5.294;2023-04-08T13:20:09;14.07;;;12.10;;
41817;SDS011;27493;51.730;5.294;2023-04-08T13:22:34;15.17;;;13.13;;
41817;SDS011;27493;51.730;5.294;2023-04-08T13:25:00;16.17;;;14.33;;
41817;SDS011;27493;51.730;5.294;2023-04-08T13:27:25;16.43;;;14.07;;
41817;SDS011;27493;51.730;5.294;2023-04-08T13:29:52;13.97;;;12.47;;
41817;SDS011;27493;51.730;5.294;2023-04-08T13:32:17;13.83;;;12.20;;
41817;SDS011;27493;51.730;5.294;2023-04-08T13:34:42;13.97;;;12.13;;
41817;SDS011;27493;51.730;5.294;2023-04-08T13:37:07;14.20;;;12.70;;
41817;SDS011;27493;51.730;5.294;2023-04-08T13:39:33;15.37;;;13.10;;
41817;SDS011;27493;51.730;5.294;2023-04-08T13:41:58;13.90;;;12.30;;
41817;SDS011;27493;51.730;5.294;2023-04-08T13:44:23;15.57;;;13.13;;
41817;SDS011;27493;51.730;5.294;2023-04-08T13:46:48;14.60;;;12.53;;
41817;SDS011;27493;51.730;5.294;2023-04-08T13:49:14;15.77;;;11.50;;
41817;SDS011;27493;51.730;5.294;2023-04-08T13:51:40;12.87;;;10.57;;
41817;SDS011;27493;51.730;5.294;2023-04-08T13:54:05;12.83;;;10.67;;
41817;SDS011;27493;51.730;5.294;2023-04-08T13:56:30;16.07;;;10.10;;
41817;SDS011;27493;51.730;5.294;2023-04-08T13:58:56;13.73;;;10.20;;
41817;SDS011;27493;51.730;5.294;2023-04-08T14:01:21;11.50;;;9.73;;
41817;SDS011;27493;51.730;5.294;2023-04-08T14:03:46;14.30;;;9.60;;
41817;SDS011;27493;51.730;5.294;2023-04-08T14:06:13;13.90;;;10.23;;
41817;SDS011;27493;51.730;5.294;2023-04-08T14:08:38;13.43;;;10.37;;
41817;SDS011;27493;51.730;5.294;2023-04-08T14:11:04;16.37;;;10.30;;
41817;SDS011;27493;51.730;5.294;2023-04-08T14:13:29;12.30;;;9.43;;
41817;SDS011;27493;51.730;5.294;2023-04-08T14:15:56;15.17;;;9.90;;
41817;SDS011;27493;51.730;5.294;2023-04-08T14:18:25;15.60;;;10.00;;
41817;SDS011;27493;51.730;5.294;2023-04-08T14:20:51;13.60;;;9.73;;
41817;SDS011;27493;51.730;5.294;2023-04-08T14:23:16;11.57;;;8.83;;
41817;SDS011;27493;51.730;5.294;2023-04-08T14:25:41;12.77;;;9.27;;
41817;SDS011;27493;51.730;5.294;2023-04-08T14:28:07;12.03;;;9.33;;
41817;SDS011;27493;51.730;5.294;2023-04-08T14:30:32;14.07;;;9.73;;
41817;SDS011;27493;51.730;5.294;2023-04-08T14:32:59;13.10;;;9.03;;
41817;SDS011;27493;51.730;5.294;2023-04-08T14:35:25;12.73;;;9.37;;
41817;SDS011;27493;51.730;5.294;2023-04-08T14:37:50;14.03;;;9.57;;
41817;SDS011;27493;51.730;5.294;2023-04-08T14:40:15;12.90;;;10.00;;
41817;SDS011;27493;51.730;5.294;2023-04-08T14:42:40;12.93;;;9.10;;